sensor_id;sensor_type;location;lat;lon;timestamp;P1;durP1;ratioP1;P2;durP2;ratioP2
12896;SDS011;6516;35.028;32.372;2022-10-16T00:02:01;9.60;;;2.10;;
12896;SDS011;6516;35.028;32.372;2022-10-16T00:04:29;8.88;;;2.10;;
12896;SDS011;6516;35.028;32.372;2022-10-16T00:06:57;8.23;;;2.25;;
12896;SDS011;6516;35.028;32.372;2022-10-16T00:09:24;5.67;;;2.30;;
12896;SDS011;6516;35.028;32.372;2022-10-16T00:11:54;6.10;;;2.13;;
12896;SDS011;6516;35.028;32.372;2022-10-16T00:14:21;4.72;;;2.03;;
12896;SDS011;6516;35.028;32.372;2022-10-16T00:16:49;8.85;;;2.08;;
12896;SDS011;6516;35.028;32.372;2022-10-16T00:19:17;6.55;;;2.25;;
12896;SDS011;6516;35.028;32.372;2022-10-16T00:21:44;7.97;;;1.80;;
12896;SDS011;6516;35.028;32.372;2022-10-16T00:24:12;10.02;;;2.55;;
12896;SDS011;6516;35.028;32.372;2022-10-16T00:26:40;8.77;;;2.30;;
12896;SDS011;6516;35.028;32.372;2022-10-16T00:29:09;7.13;;;2.17;;
12896;SDS011;6516;35.028;32.372;2022-10-16T00:31:37;6.35;;;2.08;;
12896;SDS011;6516;35.028;32.372;2022-10-16T00:34:05;6.47;;;2.53;;
12896;SDS011;6516;35.028;32.372;2022-10-16T00:36:32;8.00;;;2.05;;
12896;SDS011;6516;35.028;32.372;2022-10-16T00:39:01;6.97;;;1.90;;
12896;SDS011;6516;35.028;32.372;2022-10-16T00:41:31;4.45;;;1.98;;
12896;SDS011;6516;35.028;32.372;2022-10-16T00:44:00;8.98;;;2.40;;
12896;SDS011;6516;35.028;32.372;2022-10-16T00:46:31;7.40;;;2.40;;
12896;SDS011;6516;35.028;32.372;2022-10-16T00:49:05;6.93;;;2.17;;
12896;SDS011;6516;35.028;32.372;2022-10-16T00:51:38;7.75;;;2.00;;
12896;SDS011;6516;35.028;32.372;2022-10-16T00:54:08;5.18;;;2.10;;
12896;SDS011;6516;35.028;32.372;2022-10-16T00:56:40;6.07;;;1.90;;
12896;SDS011;6516;35.028;32.372;2022-10-16T00:59:10;8.70;;;2.20;;
12896;SDS011;6516;35.028;32.372;2022-10-16T01:01:44;6.10;;;2.10;;
12896;SDS011;6516;35.028;32.372;2022-10-16T01:04:12;5.30;;;2.20;;
12896;SDS011;6516;35.028;32.372;2022-10-16T01:06:41;6.53;;;2.30;;
12896;SDS011;6516;35.028;32.372;2022-10-16T01:09:16;9.98;;;2.42;;
12896;SDS011;6516;35.028;32.372;2022-10-16T01:11:52;7.13;;;2.50;;
12896;SDS011;6516;35.028;32.372;2022-10-16T01:14:32;7.93;;;2.15;;
12896;SDS011;6516;35.028;32.372;2022-10-16T01:17:10;9.32;;;2.60;;
12896;SDS011;6516;35.028;32.372;2022-10-16T01:19:51;6.13;;;1.95;;
12896;SDS011;6516;35.028;32.372;2022-10-16T01:22:33;8.13;;;2.08;;
12896;SDS011;6516;35.028;32.372;2022-10-16T01:25:16;6.33;;;2.17;;
12896;SDS011;6516;35.028;32.372;2022-10-16T01:27:53;8.75;;;2.22;;
12896;SDS011;6516;35.028;32.372;2022-10-16T01:30:24;14.15;;;2.67;;
12896;SDS011;6516;35.028;32.372;2022-10-16T01:32:58;7.22;;;2.40;;
12896;SDS011;6516;35.028;32.372;2022-10-16T01:35:30;9.98;;;3.17;;
12896;SDS011;6516;35.028;32.372;2022-10-16T01:38:03;9.60;;;2.50;;
12896;SDS011;6516;35.028;32.372;2022-10-16T01:40:36;7.82;;;2.50;;
12896;SDS011;6516;35.028;32.372;2022-10-16T01:43:11;7.38;;;2.70;;
12896;SDS011;6516;35.028;32.372;2022-10-16T01:45:41;11.13;;;3.03;;
12896;SDS011;6516;35.028;32.372;2022-10-16T01:48:12;10.23;;;3.05;;
12896;SDS011;6516;35.028;32.372;2022-10-16T01:50:48;7.23;;;2.80;;
12896;SDS011;6516;35.028;32.372;2022-10-16T01:53:22;10.68;;;3.17;;
12896;SDS011;6516;35.028;32.372;2022-10-16T01:55:51;6.90;;;3.00;;
12896;SDS011;6516;35.028;32.372;2022-10-16T01:58:23;10.50;;;3.10;;
12896;SDS011;6516;35.028;32.372;2022-10-16T02:00:52;9.05;;;3.50;;
12896;SDS011;6516;35.028;32.372;2022-10-16T02:03:22;9.00;;;3.23;;
12896;SDS011;6516;35.028;32.372;2022-10-16T02:05:50;10.38;;;3.08;;
12896;SDS011;6516;35.028;32.372;2022-10-16T02:08:20;8.95;;;3.03;;
12896;SDS011;6516;35.028;32.372;2022-10-16T02:10:51;13.98;;;3.55;;
12896;SDS011;6516;35.028;32.372;2022-10-16T02:13:20;11.23;;;3.15;;
12896;SDS011;6516;35.028;32.372;2022-10-16T02:15:54;7.17;;;2.97;;
12896;SDS011;6516;35.028;32.372;2022-10-16T02:18:22;12.65;;;3.50;;
12896;SDS011;6516;35.028;32.372;2022-10-16T02:20:55;10.13;;;3.50;;
12896;SDS011;6516;35.028;32.372;2022-10-16T02:23:29;13.48;;;3.60;;
12896;SDS011;6516;35.028;32.372;2022-10-16T02:26:03;9.32;;;3.25;;
12896;SDS011;6516;35.028;32.372;2022-10-16T02:28:37;13.97;;;3.10;;
12896;SDS011;6516;35.028;32.372;2022-10-16T02:31:11;9.20;;;2.95;;
12896;SDS011;6516;35.028;32.372;2022-10-16T02:33:45;9.48;;;2.55;;
12896;SDS011;6516;35.028;32.372;2022-10-16T02:36:13;9.85;;;2.33;;
12896;SDS011;6516;35.028;32.372;2022-10-16T02:38:41;10.85;;;2.88;;
12896;SDS011;6516;35.028;32.372;2022-10-16T02:41:09;8.97;;;2.60;;
12896;SDS011;6516;35.028;32.372;2022-10-16T02:43:38;12.38;;;2.70;;
12896;SDS011;6516;35.028;32.372;2022-10-16T02:46:06;7.72;;;2.85;;
12896;SDS011;6516;35.028;32.372;2022-10-16T02:48:34;7.70;;;2.70;;
12896;SDS011;6516;35.028;32.372;2022-10-16T02:51:02;10.10;;;3.30;;
12896;SDS011;6516;35.028;32.372;2022-10-16T02:53:30;12.07;;;2.80;;
12896;SDS011;6516;35.028;32.372;2022-10-16T02:55:57;11.20;;;2.80;;
12896;SDS011;6516;35.028;32.372;2022-10-16T02:58:25;10.43;;;2.80;;
12896;SDS011;6516;35.028;32.372;2022-10-16T03:00:54;8.88;;;3.08;;
12896;SDS011;6516;35.028;32.372;2022-10-16T03:03:22;12.55;;;3.10;;
12896;SDS011;6516;35.028;32.372;2022-10-16T03:05:50;14.33;;;2.80;;
12896;SDS011;6516;35.028;32.372;2022-10-16T03:08:18;19.38;;;3.33;;
12896;SDS011;6516;35.028;32.372;2022-10-16T03:10:48;11.23;;;3.10;;
12896;SDS011;6516;35.028;32.372;2022-10-16T03:13:19;15.57;;;3.80;;
12896;SDS011;6516;35.028;32.372;2022-10-16T03:15:47;11.13;;;3.55;;
12896;SDS011;6516;35.028;32.372;2022-10-16T03:18:16;12.43;;;3.70;;
12896;SDS011;6516;35.028;32.372;2022-10-16T03:20:44;11.55;;;3.88;;
12896;SDS011;6516;35.028;32.372;2022-10-16T03:23:12;15.55;;;3.67;;
12896;SDS011;6516;35.028;32.372;2022-10-16T03:25:39;14.77;;;4.10;;
12896;SDS011;6516;35.028;32.372;2022-10-16T03:28:07;18.35;;;4.20;;
12896;SDS011;6516;35.028;32.372;2022-10-16T03:30:35;11.80;;;3.60;;
12896;SDS011;6516;35.028;32.372;2022-10-16T03:33:04;16.52;;;4.22;;
12896;SDS011;6516;35.028;32.372;2022-10-16T03:35:34;14.82;;;4.35;;
12896;SDS011;6516;35.028;32.372;2022-10-16T03:38:01;14.50;;;4.53;;
12896;SDS011;6516;35.028;32.372;2022-10-16T03:40:29;15.98;;;4.50;;
12896;SDS011;6516;35.028;32.372;2022-10-16T03:42:57;10.90;;;4.27;;
12896;SDS011;6516;35.028;32.372;2022-10-16T03:45:25;14.35;;;4.40;;
12896;SDS011;6516;35.028;32.372;2022-10-16T03:47:53;16.73;;;4.53;;
12896;SDS011;6516;35.028;32.372;2022-10-16T03:50:23;13.43;;;4.07;;
12896;SDS011;6516;35.028;32.372;2022-10-16T03:52:52;13.73;;;4.60;;
12896;SDS011;6516;35.028;32.372;2022-10-16T03:55:20;18.53;;;4.93;;
12896;SDS011;6516;35.028;32.372;2022-10-16T03:57:47;19.80;;;5.07;;
12896;SDS011;6516;35.028;32.372;2022-10-16T04:00:15;12.25;;;4.95;;
12896;SDS011;6516;35.028;32.372;2022-10-16T04:02:43;12.30;;;4.80;;
12896;SDS011;6516;35.028;32.372;2022-10-16T04:05:11;13.25;;;4.93;;
12896;SDS011;6516;35.028;32.372;2022-10-16T04:07:39;13.30;;;4.50;;
12896;SDS011;6516;35.028;32.372;2022-10-16T04:10:08;17.70;;;4.60;;
12896;SDS011;6516;35.028;32.372;2022-10-16T04:12:36;13.02;;;4.30;;
12896;SDS011;6516;35.028;32.372;2022-10-16T04:15:04;15.93;;;4.50;;
12896;SDS011;6516;35.028;32.372;2022-10-16T04:17:32;19.15;;;5.07;;
12896;SDS011;6516;35.028;32.372;2022-10-16T04:20:00;14.97;;;4.73;;
12896;SDS011;6516;35.028;32.372;2022-10-16T04:22:28;14.40;;;4.63;;
12896;SDS011;6516;35.028;32.372;2022-10-16T04:24:56;21.83;;;5.35;;
12896;SDS011;6516;35.028;32.372;2022-10-16T04:27:25;14.55;;;5.13;;
12896;SDS011;6516;35.028;32.372;2022-10-16T04:29:53;11.13;;;4.45;;
12896;SDS011;6516;35.028;32.372;2022-10-16T04:32:21;14.83;;;4.37;;
12896;SDS011;6516;35.028;32.372;2022-10-16T04:34:49;17.38;;;4.22;;
12896;SDS011;6516;35.028;32.372;2022-10-16T04:37:16;19.10;;;5.13;;
12896;SDS011;6516;35.028;32.372;2022-10-16T04:39:44;13.07;;;4.63;;
12896;SDS011;6516;35.028;32.372;2022-10-16T04:42:12;26.25;;;5.07;;
12896;SDS011;6516;35.028;32.372;2022-10-16T04:44:41;22.40;;;5.03;;
12896;SDS011;6516;35.028;32.372;2022-10-16T04:47:09;21.33;;;4.65;;
12896;SDS011;6516;35.028;32.372;2022-10-16T04:49:37;33.40;;;5.20;;
12896;SDS011;6516;35.028;32.372;2022-10-16T04:52:04;31.92;;;5.60;;
12896;SDS011;6516;35.028;32.372;2022-10-16T04:54:33;30.40;;;5.00;;
12896;SDS011;6516;35.028;32.372;2022-10-16T04:57:01;29.30;;;5.33;;
12896;SDS011;6516;35.028;32.372;2022-10-16T04:59:30;25.02;;;5.43;;
12896;SDS011;6516;35.028;32.372;2022-10-16T05:01:59;18.00;;;5.05;;
12896;SDS011;6516;35.028;32.372;2022-10-16T05:04:26;17.73;;;5.80;;
12896;SDS011;6516;35.028;32.372;2022-10-16T05:06:54;25.02;;;5.55;;
12896;SDS011;6516;35.028;32.372;2022-10-16T05:09:22;31.23;;;6.53;;
12896;SDS011;6516;35.028;32.372;2022-10-16T05:11:50;35.05;;;6.78;;
12896;SDS011;6516;35.028;32.372;2022-10-16T05:14:18;31.55;;;6.18;;
12896;SDS011;6516;35.028;32.372;2022-10-16T05:16:45;33.33;;;7.65;;
12896;SDS011;6516;35.028;32.372;2022-10-16T05:19:15;24.95;;;6.00;;
12896;SDS011;6516;35.028;32.372;2022-10-16T05:21:43;34.13;;;7.17;;
12896;SDS011;6516;35.028;32.372;2022-10-16T05:24:11;20.80;;;5.30;;
12896;SDS011;6516;35.028;32.372;2022-10-16T05:26:39;20.40;;;4.95;;
12896;SDS011;6516;35.028;32.372;2022-10-16T05:29:07;16.83;;;4.25;;
12896;SDS011;6516;35.028;32.372;2022-10-16T05:31:35;20.30;;;2.55;;
12896;SDS011;6516;35.028;32.372;2022-10-16T05:34:02;14.97;;;2.80;;
12896;SDS011;6516;35.028;32.372;2022-10-16T05:36:32;19.88;;;1.92;;
12896;SDS011;6516;35.028;32.372;2022-10-16T05:38:59;16.10;;;1.92;;
12896;SDS011;6516;35.028;32.372;2022-10-16T05:41:27;15.68;;;2.50;;
12896;SDS011;6516;35.028;32.372;2022-10-16T05:43:55;25.08;;;2.90;;
12896;SDS011;6516;35.028;32.372;2022-10-16T05:46:22;22.83;;;2.77;;
12896;SDS011;6516;35.028;32.372;2022-10-16T05:48:51;18.95;;;3.00;;
12896;SDS011;6516;35.028;32.372;2022-10-16T05:51:19;22.13;;;3.00;;
12896;SDS011;6516;35.028;32.372;2022-10-16T05:53:48;18.80;;;2.35;;
12896;SDS011;6516;35.028;32.372;2022-10-16T05:56:16;19.15;;;2.40;;
12896;SDS011;6516;35.028;32.372;2022-10-16T05:58:44;22.17;;;2.27;;
12896;SDS011;6516;35.028;32.372;2022-10-16T06:01:14;24.27;;;2.97;;
12896;SDS011;6516;35.028;32.372;2022-10-16T06:03:43;24.23;;;2.78;;
12896;SDS011;6516;35.028;32.372;2022-10-16T06:06:11;12.68;;;2.00;;
12896;SDS011;6516;35.028;32.372;2022-10-16T06:08:42;23.13;;;2.40;;
12896;SDS011;6516;35.028;32.372;2022-10-16T06:11:14;16.10;;;2.27;;
12896;SDS011;6516;35.028;32.372;2022-10-16T06:13:43;16.92;;;2.03;;
12896;SDS011;6516;35.028;32.372;2022-10-16T06:16:12;20.80;;;2.13;;
12896;SDS011;6516;35.028;32.372;2022-10-16T06:18:40;24.83;;;2.42;;
12896;SDS011;6516;35.028;32.372;2022-10-16T06:21:08;16.17;;;2.53;;
12896;SDS011;6516;35.028;32.372;2022-10-16T06:23:37;14.30;;;1.90;;
12896;SDS011;6516;35.028;32.372;2022-10-16T06:26:06;20.25;;;2.35;;
12896;SDS011;6516;35.028;32.372;2022-10-16T06:28:36;22.85;;;2.25;;
12896;SDS011;6516;35.028;32.372;2022-10-16T06:31:05;18.13;;;2.28;;
12896;SDS011;6516;35.028;32.372;2022-10-16T06:33:34;23.25;;;2.83;;
12896;SDS011;6516;35.028;32.372;2022-10-16T06:36:03;17.90;;;2.97;;
12896;SDS011;6516;35.028;32.372;2022-10-16T06:38:34;17.27;;;2.47;;
12896;SDS011;6516;35.028;32.372;2022-10-16T06:41:02;11.85;;;1.88;;
12896;SDS011;6516;35.028;32.372;2022-10-16T06:43:31;17.55;;;2.58;;
12896;SDS011;6516;35.028;32.372;2022-10-16T06:46:02;12.40;;;1.75;;
12896;SDS011;6516;35.028;32.372;2022-10-16T06:48:32;18.53;;;2.27;;
12896;SDS011;6516;35.028;32.372;2022-10-16T06:51:01;15.68;;;2.03;;
12896;SDS011;6516;35.028;32.372;2022-10-16T06:53:32;25.98;;;2.67;;
12896;SDS011;6516;35.028;32.372;2022-10-16T06:56:06;22.42;;;2.92;;
12896;SDS011;6516;35.028;32.372;2022-10-16T06:58:35;13.93;;;2.40;;
12896;SDS011;6516;35.028;32.372;2022-10-16T07:01:05;22.30;;;2.60;;
12896;SDS011;6516;35.028;32.372;2022-10-16T07:03:35;16.67;;;2.30;;
12896;SDS011;6516;35.028;32.372;2022-10-16T07:06:04;16.33;;;1.92;;
12896;SDS011;6516;35.028;32.372;2022-10-16T07:08:34;9.52;;;2.15;;
12896;SDS011;6516;35.028;32.372;2022-10-16T07:11:03;13.85;;;2.60;;
12896;SDS011;6516;35.028;32.372;2022-10-16T07:13:33;12.70;;;2.00;;
12896;SDS011;6516;35.028;32.372;2022-10-16T07:16:05;13.23;;;2.22;;
12896;SDS011;6516;35.028;32.372;2022-10-16T07:18:34;12.05;;;1.83;;
12896;SDS011;6516;35.028;32.372;2022-10-16T07:21:04;11.60;;;2.00;;
12896;SDS011;6516;35.028;32.372;2022-10-16T07:23:33;8.52;;;2.10;;
12896;SDS011;6516;35.028;32.372;2022-10-16T07:26:01;7.23;;;1.97;;
12896;SDS011;6516;35.028;32.372;2022-10-16T07:28:30;9.07;;;1.77;;
12896;SDS011;6516;35.028;32.372;2022-10-16T07:31:00;13.45;;;1.90;;
12896;SDS011;6516;35.028;32.372;2022-10-16T07:33:30;8.05;;;1.90;;
12896;SDS011;6516;35.028;32.372;2022-10-16T07:35:58;9.88;;;1.88;;
12896;SDS011;6516;35.028;32.372;2022-10-16T07:38:25;9.03;;;2.00;;
12896;SDS011;6516;35.028;32.372;2022-10-16T07:40:56;12.00;;;2.90;;
12896;SDS011;6516;35.028;32.372;2022-10-16T07:43:25;6.25;;;1.80;;
12896;SDS011;6516;35.028;32.372;2022-10-16T07:45:53;7.68;;;1.92;;
12896;SDS011;6516;35.028;32.372;2022-10-16T07:48:22;10.43;;;2.40;;
12896;SDS011;6516;35.028;32.372;2022-10-16T07:50:56;8.53;;;2.30;;
12896;SDS011;6516;35.028;32.372;2022-10-16T07:53:25;14.13;;;2.60;;
12896;SDS011;6516;35.028;32.372;2022-10-16T07:55:56;11.55;;;2.80;;
12896;SDS011;6516;35.028;32.372;2022-10-16T07:58:25;9.10;;;2.38;;
12896;SDS011;6516;35.028;32.372;2022-10-16T08:00:53;10.27;;;2.17;;
12896;SDS011;6516;35.028;32.372;2022-10-16T08:03:21;10.40;;;2.07;;
12896;SDS011;6516;35.028;32.372;2022-10-16T08:05:49;8.00;;;2.08;;
12896;SDS011;6516;35.028;32.372;2022-10-16T08:08:18;10.65;;;2.08;;
12896;SDS011;6516;35.028;32.372;2022-10-16T08:10:47;11.27;;;2.30;;
12896;SDS011;6516;35.028;32.372;2022-10-16T08:13:14;9.18;;;1.95;;
12896;SDS011;6516;35.028;32.372;2022-10-16T08:15:42;8.27;;;2.40;;
12896;SDS011;6516;35.028;32.372;2022-10-16T08:18:11;9.00;;;2.45;;
12896;SDS011;6516;35.028;32.372;2022-10-16T08:20:40;8.75;;;2.22;;
12896;SDS011;6516;35.028;32.372;2022-10-16T08:23:09;8.57;;;2.30;;
12896;SDS011;6516;35.028;32.372;2022-10-16T08:25:40;10.05;;;2.42;;
12896;SDS011;6516;35.028;32.372;2022-10-16T08:28:10;11.70;;;2.10;;
12896;SDS011;6516;35.028;32.372;2022-10-16T08:30:38;5.90;;;1.85;;
12896;SDS011;6516;35.028;32.372;2022-10-16T08:33:05;10.82;;;1.88;;
12896;SDS011;6516;35.028;32.372;2022-10-16T08:35:33;4.88;;;1.70;;
12896;SDS011;6516;35.028;32.372;2022-10-16T08:38:02;6.43;;;1.63;;
12896;SDS011;6516;35.028;32.372;2022-10-16T08:40:31;8.83;;;1.73;;
12896;SDS011;6516;35.028;32.372;2022-10-16T08:43:21;9.27;;;2.30;;
12896;SDS011;6516;35.028;32.372;2022-10-16T08:46:09;8.50;;;1.98;;
12896;SDS011;6516;35.028;32.372;2022-10-16T08:48:51;7.72;;;2.15;;
12896;SDS011;6516;35.028;32.372;2022-10-16T08:51:22;6.70;;;1.92;;
12896;SDS011;6516;35.028;32.372;2022-10-16T08:53:54;7.37;;;2.17;;
12896;SDS011;6516;35.028;32.372;2022-10-16T08:56:25;9.35;;;2.00;;
12896;SDS011;6516;35.028;32.372;2022-10-16T08:58:56;7.28;;;1.70;;
12896;SDS011;6516;35.028;32.372;2022-10-16T09:01:29;7.28;;;1.67;;
12896;SDS011;6516;35.028;32.372;2022-10-16T09:04:23;5.57;;;1.80;;
12896;SDS011;6516;35.028;32.372;2022-10-16T09:07:20;6.67;;;2.03;;
12896;SDS011;6516;35.028;32.372;2022-10-16T09:10:00;4.95;;;1.50;;
12896;SDS011;6516;35.028;32.372;2022-10-16T09:12:45;6.85;;;1.80;;
12896;SDS011;6516;35.028;32.372;2022-10-16T09:15:24;8.43;;;1.60;;
12896;SDS011;6516;35.028;32.372;2022-10-16T09:18:02;5.25;;;1.70;;
12896;SDS011;6516;35.028;32.372;2022-10-16T09:20:39;5.37;;;1.50;;
12896;SDS011;6516;35.028;32.372;2022-10-16T09:23:17;5.88;;;1.50;;
12896;SDS011;6516;35.028;32.372;2022-10-16T09:25:50;6.50;;;1.55;;
12896;SDS011;6516;35.028;32.372;2022-10-16T09:28:19;5.53;;;1.30;;
12896;SDS011;6516;35.028;32.372;2022-10-16T09:30:48;4.72;;;1.40;;
12896;SDS011;6516;35.028;32.372;2022-10-16T09:33:17;4.73;;;1.20;;
12896;SDS011;6516;35.028;32.372;2022-10-16T09:35:49;5.63;;;1.30;;
12896;SDS011;6516;35.028;32.372;2022-10-16T09:38:23;5.47;;;1.35;;
12896;SDS011;6516;35.028;32.372;2022-10-16T09:40:54;7.28;;;1.40;;
12896;SDS011;6516;35.028;32.372;2022-10-16T09:43:23;5.28;;;1.27;;
12896;SDS011;6516;35.028;32.372;2022-10-16T09:45:58;4.73;;;1.20;;
12896;SDS011;6516;35.028;32.372;2022-10-16T09:48:29;4.85;;;1.20;;
12896;SDS011;6516;35.028;32.372;2022-10-16T09:51:04;4.75;;;1.33;;
12896;SDS011;6516;35.028;32.372;2022-10-16T09:53:41;4.22;;;1.20;;
12896;SDS011;6516;35.028;32.372;2022-10-16T09:56:10;4.18;;;1.20;;
12896;SDS011;6516;35.028;32.372;2022-10-16T09:58:49;5.80;;;1.17;;
12896;SDS011;6516;35.028;32.372;2022-10-16T10:01:19;3.60;;;0.90;;
12896;SDS011;6516;35.028;32.372;2022-10-16T10:03:57;3.97;;;1.05;;
12896;SDS011;6516;35.028;32.372;2022-10-16T10:06:28;2.50;;;0.80;;
12896;SDS011;6516;35.028;32.372;2022-10-16T10:09:00;3.22;;;0.90;;
12896;SDS011;6516;35.028;32.372;2022-10-16T10:11:43;5.37;;;1.03;;
12896;SDS011;6516;35.028;32.372;2022-10-16T10:14:22;2.95;;;0.70;;
12896;SDS011;6516;35.028;32.372;2022-10-16T10:17:07;4.38;;;0.80;;
12896;SDS011;6516;35.028;32.372;2022-10-16T10:19:44;3.60;;;0.80;;
12896;SDS011;6516;35.028;32.372;2022-10-16T10:22:19;4.15;;;0.90;;
12896;SDS011;6516;35.028;32.372;2022-10-16T10:24:57;4.30;;;0.83;;
12896;SDS011;6516;35.028;32.372;2022-10-16T10:27:59;3.55;;;0.80;;
12896;SDS011;6516;35.028;32.372;2022-10-16T10:30:57;2.97;;;0.70;;
12896;SDS011;6516;35.028;32.372;2022-10-16T10:33:37;5.10;;;0.80;;
12896;SDS011;6516;35.028;32.372;2022-10-16T10:36:20;2.67;;;0.70;;
12896;SDS011;6516;35.028;32.372;2022-10-16T10:38:57;2.63;;;0.70;;
12896;SDS011;6516;35.028;32.372;2022-10-16T10:47:38;3.67;;;0.60;;
12896;SDS011;6516;35.028;32.372;2022-10-16T10:50:20;4.15;;;0.80;;
12896;SDS011;6516;35.028;32.372;2022-10-16T10:52:59;3.53;;;0.60;;
12896;SDS011;6516;35.028;32.372;2022-10-16T10:55:39;4.15;;;0.57;;
12896;SDS011;6516;35.028;32.372;2022-10-16T10:58:27;2.60;;;0.68;;
12896;SDS011;6516;35.028;32.372;2022-10-16T11:01:14;3.83;;;0.70;;
12896;SDS011;6516;35.028;32.372;2022-10-16T11:03:57;4.03;;;0.80;;
12896;SDS011;6516;35.028;32.372;2022-10-16T11:06:52;3.70;;;0.80;;
12896;SDS011;6516;35.028;32.372;2022-10-16T11:09:27;3.28;;;0.60;;
12896;SDS011;6516;35.028;32.372;2022-10-16T11:12:01;3.63;;;0.80;;
12896;SDS011;6516;35.028;32.372;2022-10-16T11:14:38;3.58;;;0.73;;
12896;SDS011;6516;35.028;32.372;2022-10-16T11:17:12;4.22;;;1.08;;
12896;SDS011;6516;35.028;32.372;2022-10-16T11:19:45;3.77;;;0.80;;
12896;SDS011;6516;35.028;32.372;2022-10-16T11:22:20;4.35;;;0.80;;
12896;SDS011;6516;35.028;32.372;2022-10-16T11:24:59;3.88;;;0.80;;
12896;SDS011;6516;35.028;32.372;2022-10-16T11:27:36;2.80;;;0.63;;
12896;SDS011;6516;35.028;32.372;2022-10-16T11:30:11;5.00;;;0.75;;
12896;SDS011;6516;35.028;32.372;2022-10-16T11:35:41;3.08;;;0.70;;
12896;SDS011;6516;35.028;32.372;2022-10-16T11:38:19;3.85;;;0.80;;
12896;SDS011;6516;35.028;32.372;2022-10-16T11:40:56;3.03;;;0.70;;
12896;SDS011;6516;35.028;32.372;2022-10-16T11:43:32;6.20;;;0.90;;
12896;SDS011;6516;35.028;32.372;2022-10-16T11:46:08;1.57;;;0.60;;
12896;SDS011;6516;35.028;32.372;2022-10-16T11:48:43;2.92;;;0.60;;
12896;SDS011;6516;35.028;32.372;2022-10-16T11:51:19;2.42;;;0.70;;
12896;SDS011;6516;35.028;32.372;2022-10-16T11:53:55;5.60;;;0.80;;
12896;SDS011;6516;35.028;32.372;2022-10-16T11:56:27;2.28;;;0.70;;
12896;SDS011;6516;35.028;32.372;2022-10-16T11:58:59;3.37;;;0.80;;
12896;SDS011;6516;35.028;32.372;2022-10-16T12:01:31;1.77;;;0.50;;
12896;SDS011;6516;35.028;32.372;2022-10-16T12:04:12;2.97;;;0.73;;
12896;SDS011;6516;35.028;32.372;2022-10-16T12:06:48;2.58;;;0.75;;
12896;SDS011;6516;35.028;32.372;2022-10-16T12:09:24;3.78;;;0.82;;
12896;SDS011;6516;35.028;32.372;2022-10-16T12:11:55;6.37;;;1.10;;
12896;SDS011;6516;35.028;32.372;2022-10-16T12:14:34;3.97;;;0.90;;
12896;SDS011;6516;35.028;32.372;2022-10-16T12:17:25;3.33;;;0.70;;
12896;SDS011;6516;35.028;32.372;2022-10-16T12:20:12;3.40;;;0.82;;
12896;SDS011;6516;35.028;32.372;2022-10-16T12:22:53;4.50;;;1.00;;
12896;SDS011;6516;35.028;32.372;2022-10-16T12:25:26;3.40;;;0.80;;
12896;SDS011;6516;35.028;32.372;2022-10-16T12:28:00;5.05;;;0.95;;
12896;SDS011;6516;35.028;32.372;2022-10-16T12:30:31;3.67;;;1.00;;
12896;SDS011;6516;35.028;32.372;2022-10-16T12:33:02;3.65;;;1.00;;
12896;SDS011;6516;35.028;32.372;2022-10-16T12:35:33;5.50;;;1.10;;
12896;SDS011;6516;35.028;32.372;2022-10-16T12:38:17;4.83;;;1.10;;
12896;SDS011;6516;35.028;32.372;2022-10-16T12:40:56;4.10;;;0.90;;
12896;SDS011;6516;35.028;32.372;2022-10-16T12:43:34;4.10;;;0.90;;
12896;SDS011;6516;35.028;32.372;2022-10-16T12:46:18;3.72;;;0.90;;
12896;SDS011;6516;35.028;32.372;2022-10-16T12:49:23;6.22;;;1.30;;
12896;SDS011;6516;35.028;32.372;2022-10-16T12:51:59;5.80;;;1.27;;
12896;SDS011;6516;35.028;32.372;2022-10-16T12:54:27;4.55;;;0.90;;
12896;SDS011;6516;35.028;32.372;2022-10-16T12:57:01;3.60;;;1.08;;
12896;SDS011;6516;35.028;32.372;2022-10-16T12:59:58;5.07;;;1.10;;
12896;SDS011;6516;35.028;32.372;2022-10-16T13:05:33;4.43;;;1.10;;
12896;SDS011;6516;35.028;32.372;2022-10-16T13:08:20;5.30;;;1.30;;
12896;SDS011;6516;35.028;32.372;2022-10-16T13:11:07;5.68;;;1.08;;
12896;SDS011;6516;35.028;32.372;2022-10-16T13:13:53;3.78;;;1.02;;
12896;SDS011;6516;35.028;32.372;2022-10-16T13:16:42;6.80;;;1.38;;
12896;SDS011;6516;35.028;32.372;2022-10-16T13:19:21;5.73;;;1.30;;
12896;SDS011;6516;35.028;32.372;2022-10-16T13:21:58;4.78;;;1.15;;
12896;SDS011;6516;35.028;32.372;2022-10-16T13:24:46;5.93;;;1.40;;
12896;SDS011;6516;35.028;32.372;2022-10-16T13:27:29;7.95;;;1.45;;
12896;SDS011;6516;35.028;32.372;2022-10-16T13:30:12;6.97;;;1.70;;
12896;SDS011;6516;35.028;32.372;2022-10-16T13:32:44;7.70;;;1.57;;
12896;SDS011;6516;35.028;32.372;2022-10-16T13:35:21;4.20;;;1.20;;
12896;SDS011;6516;35.028;32.372;2022-10-16T13:38:05;8.48;;;1.95;;
12896;SDS011;6516;35.028;32.372;2022-10-16T13:40:48;6.72;;;1.70;;
12896;SDS011;6516;35.028;32.372;2022-10-16T13:43:18;5.40;;;1.80;;
12896;SDS011;6516;35.028;32.372;2022-10-16T13:45:56;5.50;;;1.93;;
12896;SDS011;6516;35.028;32.372;2022-10-16T13:48:27;7.57;;;1.80;;
12896;SDS011;6516;35.028;32.372;2022-10-16T13:50:59;6.70;;;1.70;;
12896;SDS011;6516;35.028;32.372;2022-10-16T13:53:29;5.93;;;1.60;;
12896;SDS011;6516;35.028;32.372;2022-10-16T13:55:59;7.32;;;1.50;;
12896;SDS011;6516;35.028;32.372;2022-10-16T13:58:27;5.47;;;1.10;;
12896;SDS011;6516;35.028;32.372;2022-10-16T14:00:57;5.60;;;1.10;;
12896;SDS011;6516;35.028;32.372;2022-10-16T14:03:27;7.07;;;1.42;;
12896;SDS011;6516;35.028;32.372;2022-10-16T14:05:57;5.97;;;1.50;;
12896;SDS011;6516;35.028;32.372;2022-10-16T14:08:28;4.78;;;1.77;;
12896;SDS011;6516;35.028;32.372;2022-10-16T14:10:58;5.63;;;1.10;;
12896;SDS011;6516;35.028;32.372;2022-10-16T14:13:31;5.05;;;1.10;;
12896;SDS011;6516;35.028;32.372;2022-10-16T14:16:07;6.22;;;1.63;;
12896;SDS011;6516;35.028;32.372;2022-10-16T14:18:37;5.57;;;1.27;;
12896;SDS011;6516;35.028;32.372;2022-10-16T14:21:07;4.47;;;1.10;;
12896;SDS011;6516;35.028;32.372;2022-10-16T14:23:40;4.53;;;1.37;;
12896;SDS011;6516;35.028;32.372;2022-10-16T14:26:12;4.65;;;1.30;;
12896;SDS011;6516;35.028;32.372;2022-10-16T14:28:43;5.25;;;1.30;;
12896;SDS011;6516;35.028;32.372;2022-10-16T14:31:27;4.60;;;1.40;;
12896;SDS011;6516;35.028;32.372;2022-10-16T14:33:57;4.28;;;1.30;;
12896;SDS011;6516;35.028;32.372;2022-10-16T14:36:26;4.97;;;1.30;;
12896;SDS011;6516;35.028;32.372;2022-10-16T14:38:59;4.70;;;1.50;;
12896;SDS011;6516;35.028;32.372;2022-10-16T14:41:29;5.35;;;1.27;;
12896;SDS011;6516;35.028;32.372;2022-10-16T14:44:01;5.00;;;1.30;;
12896;SDS011;6516;35.028;32.372;2022-10-16T14:46:34;7.90;;;1.40;;
12896;SDS011;6516;35.028;32.372;2022-10-16T14:49:11;5.67;;;1.10;;
12896;SDS011;6516;35.028;32.372;2022-10-16T14:51:45;5.43;;;1.38;;
12896;SDS011;6516;35.028;32.372;2022-10-16T14:54:13;5.25;;;1.60;;
12896;SDS011;6516;35.028;32.372;2022-10-16T14:56:44;6.50;;;1.45;;
12896;SDS011;6516;35.028;32.372;2022-10-16T14:59:16;5.75;;;1.30;;
12896;SDS011;6516;35.028;32.372;2022-10-16T15:01:48;6.20;;;1.30;;
12896;SDS011;6516;35.028;32.372;2022-10-16T15:04:16;3.60;;;1.23;;
12896;SDS011;6516;35.028;32.372;2022-10-16T15:06:44;5.50;;;1.30;;
12896;SDS011;6516;35.028;32.372;2022-10-16T15:09:12;5.63;;;1.40;;
12896;SDS011;6516;35.028;32.372;2022-10-16T15:11:40;5.25;;;1.50;;
12896;SDS011;6516;35.028;32.372;2022-10-16T15:14:09;4.93;;;1.30;;
12896;SDS011;6516;35.028;32.372;2022-10-16T15:16:39;4.22;;;1.40;;
12896;SDS011;6516;35.028;32.372;2022-10-16T15:19:08;9.88;;;1.80;;
12896;SDS011;6516;35.028;32.372;2022-10-16T15:21:35;8.48;;;1.60;;
12896;SDS011;6516;35.028;32.372;2022-10-16T15:24:07;5.72;;;1.33;;
12896;SDS011;6516;35.028;32.372;2022-10-16T15:26:39;6.47;;;1.70;;